sensor_id;sensor_type;location;lat;lon;timestamp;P1;durP1;ratioP1;P2;durP2;ratioP2
51358;SDS011;37448;51.588;7.248;2023-07-29T00:01:26;5.03;;;1.90;;
51358;SDS011;37448;51.588;7.248;2023-07-29T00:03:27;2.72;;;1.75;;
51358;SDS011;37448;51.588;7.248;2023-07-29T00:05:29;2.33;;;2.00;;
51358;SDS011;37448;51.588;7.248;2023-07-29T00:07:30;2.08;;;1.67;;
51358;SDS011;37448;51.588;7.248;2023-07-29T00:09:30;2.60;;;2.10;;
51358;SDS011;37448;51.588;7.248;2023-07-29T00:11:31;4.38;;;3.05;;
51358;SDS011;37448;51.588;7.248;2023-07-29T00:13:33;2.38;;;2.10;;
51358;SDS011;37448;51.588;7.248;2023-07-29T00:15:34;3.30;;;1.98;;
51358;SDS011;37448;51.588;7.248;2023-07-29T00:17:34;3.05;;;2.20;;
51358;SDS011;37448;51.588;7.248;2023-07-29T00:19:35;2.80;;;2.05;;
51358;SDS011;37448;51.588;7.248;2023-07-29T00:21:35;2.75;;;2.20;;
51358;SDS011;37448;51.588;7.248;2023-07-29T00:23:35;3.63;;;2.30;;
51358;SDS011;37448;51.588;7.248;2023-07-29T00:25:36;4.38;;;2.35;;
51358;SDS011;37448;51.588;7.248;2023-07-29T00:27:36;2.40;;;2.13;;
51358;SDS011;37448;51.588;7.248;2023-07-29T00:29:36;2.58;;;1.90;;
51358;SDS011;37448;51.588;7.248;2023-07-29T00:31:37;3.42;;;1.95;;
51358;SDS011;37448;51.588;7.248;2023-07-29T00:33:37;3.42;;;2.25;;
51358;SDS011;37448;51.588;7.248;2023-07-29T00:35:38;4.28;;;2.10;;
51358;SDS011;37448;51.588;7.248;2023-07-29T00:37:38;2.65;;;2.03;;
51358;SDS011;37448;51.588;7.248;2023-07-29T00:39:39;2.40;;;1.90;;
51358;SDS011;37448;51.588;7.248;2023-07-29T00:41:40;2.53;;;1.90;;
51358;SDS011;37448;51.588;7.248;2023-07-29T00:43:40;5.10;;;2.03;;
51358;SDS011;37448;51.588;7.248;2023-07-29T00:45:41;3.05;;;2.00;;
51358;SDS011;37448;51.588;7.248;2023-07-29T00:47:44;2.72;;;1.65;;
51358;SDS011;37448;51.588;7.248;2023-07-29T00:49:45;2.83;;;2.20;;
51358;SDS011;37448;51.588;7.248;2023-07-29T00:51:46;3.25;;;2.33;;
51358;SDS011;37448;51.588;7.248;2023-07-29T00:53:46;2.60;;;2.15;;
51358;SDS011;37448;51.588;7.248;2023-07-29T00:55:47;2.95;;;2.05;;
51358;SDS011;37448;51.588;7.248;2023-07-29T00:57:49;2.72;;;1.80;;
51358;SDS011;37448;51.588;7.248;2023-07-29T00:59:51;4.05;;;2.10;;
51358;SDS011;37448;51.588;7.248;2023-07-29T01:01:52;2.92;;;2.08;;
51358;SDS011;37448;51.588;7.248;2023-07-29T01:03:52;2.35;;;1.85;;
51358;SDS011;37448;51.588;7.248;2023-07-29T01:08:19;2.60;;;2.40;;
51358;SDS011;37448;51.588;7.248;2023-07-29T01:12:56;4.70;;;2.42;;
51358;SDS011;37448;51.588;7.248;2023-07-29T01:17:22;3.70;;;2.60;;
51358;SDS011;37448;51.588;7.248;2023-07-29T01:19:43;2.90;;;2.60;;
51358;SDS011;37448;51.588;7.248;2023-07-29T01:21:57;3.22;;;2.55;;
51358;SDS011;37448;51.588;7.248;2023-07-29T01:23:58;2.97;;;2.67;;
51358;SDS011;37448;51.588;7.248;2023-07-29T01:26:02;2.80;;;2.45;;
51358;SDS011;37448;51.588;7.248;2023-07-29T01:28:03;3.42;;;2.55;;
51358;SDS011;37448;51.588;7.248;2023-07-29T01:30:05;3.25;;;2.85;;
51358;SDS011;37448;51.588;7.248;2023-07-29T01:32:09;4.22;;;2.83;;
51358;SDS011;37448;51.588;7.248;2023-07-29T01:34:13;3.50;;;2.80;;
51358;SDS011;37448;51.588;7.248;2023-07-29T01:36:34;3.08;;;2.72;;
51358;SDS011;37448;51.588;7.248;2023-07-29T01:38:40;3.50;;;3.00;;
51358;SDS011;37448;51.588;7.248;2023-07-29T01:40:43;3.45;;;2.97;;
51358;SDS011;37448;51.588;7.248;2023-07-29T01:42:44;3.22;;;2.92;;
51358;SDS011;37448;51.588;7.248;2023-07-29T01:44:46;3.97;;;2.83;;
51358;SDS011;37448;51.588;7.248;2023-07-29T01:46:47;2.80;;;2.60;;
51358;SDS011;37448;51.588;7.248;2023-07-29T01:48:47;4.22;;;2.40;;
51358;SDS011;37448;51.588;7.248;2023-07-29T01:50:48;3.30;;;3.00;;
51358;SDS011;37448;51.588;7.248;2023-07-29T01:52:48;2.97;;;2.63;;
51358;SDS011;37448;51.588;7.248;2023-07-29T01:54:48;2.88;;;2.67;;
51358;SDS011;37448;51.588;7.248;2023-07-29T01:56:49;3.42;;;2.80;;
51358;SDS011;37448;51.588;7.248;2023-07-29T01:58:51;3.70;;;3.08;;
51358;SDS011;37448;51.588;7.248;2023-07-29T02:00:51;3.58;;;3.25;;
51358;SDS011;37448;51.588;7.248;2023-07-29T02:02:52;3.42;;;3.08;;
51358;SDS011;37448;51.588;7.248;2023-07-29T02:04:52;4.13;;;2.15;;
51358;SDS011;37448;51.588;7.248;2023-07-29T02:06:53;4.15;;;2.88;;
51358;SDS011;37448;51.588;7.248;2023-07-29T02:08:54;4.80;;;2.88;;
51358;SDS011;37448;51.588;7.248;2023-07-29T02:10:55;3.97;;;3.33;;
51358;SDS011;37448;51.588;7.248;2023-07-29T02:12:56;3.22;;;2.92;;
51358;SDS011;37448;51.588;7.248;2023-07-29T02:14:56;3.05;;;2.72;;
51358;SDS011;37448;51.588;7.248;2023-07-29T02:16:56;3.13;;;2.75;;
51358;SDS011;37448;51.588;7.248;2023-07-29T02:18:57;5.90;;;3.35;;
51358;SDS011;37448;51.588;7.248;2023-07-29T02:20:57;3.10;;;2.80;;
51358;SDS011;37448;51.588;7.248;2023-07-29T02:22:58;3.22;;;2.50;;
51358;SDS011;37448;51.588;7.248;2023-07-29T02:24:59;3.25;;;2.65;;
51358;SDS011;37448;51.588;7.248;2023-07-29T02:26:59;5.32;;;2.88;;
51358;SDS011;37448;51.588;7.248;2023-07-29T02:29:00;3.33;;;3.03;;
51358;SDS011;37448;51.588;7.248;2023-07-29T02:31:12;3.92;;;2.75;;
51358;SDS011;37448;51.588;7.248;2023-07-29T02:33:16;3.22;;;2.67;;
51358;SDS011;37448;51.588;7.248;2023-07-29T02:35:17;3.92;;;2.50;;
51358;SDS011;37448;51.588;7.248;2023-07-29T02:37:18;3.70;;;2.70;;
51358;SDS011;37448;51.588;7.248;2023-07-29T02:39:18;4.40;;;2.83;;
51358;SDS011;37448;51.588;7.248;2023-07-29T02:41:19;3.45;;;2.22;;
51358;SDS011;37448;51.588;7.248;2023-07-29T02:43:19;5.75;;;2.78;;
51358;SDS011;37448;51.588;7.248;2023-07-29T02:45:19;2.67;;;2.28;;
51358;SDS011;37448;51.588;7.248;2023-07-29T02:47:20;3.08;;;2.50;;
51358;SDS011;37448;51.588;7.248;2023-07-29T02:49:21;2.80;;;2.50;;
51358;SDS011;37448;51.588;7.248;2023-07-29T02:51:22;2.70;;;2.50;;
51358;SDS011;37448;51.588;7.248;2023-07-29T02:53:22;4.15;;;2.42;;
51358;SDS011;37448;51.588;7.248;2023-07-29T02:55:23;2.72;;;2.22;;
51358;SDS011;37448;51.588;7.248;2023-07-29T02:57:23;2.53;;;2.25;;
51358;SDS011;37448;51.588;7.248;2023-07-29T02:59:24;3.10;;;2.30;;
51358;SDS011;37448;51.588;7.248;2023-07-29T03:01:24;2.42;;;2.20;;
51358;SDS011;37448;51.588;7.248;2023-07-29T03:03:25;3.78;;;2.47;;
51358;SDS011;37448;51.588;7.248;2023-07-29T03:05:28;3.28;;;2.47;;
51358;SDS011;37448;51.588;7.248;2023-07-29T03:07:29;2.60;;;2.10;;
51358;SDS011;37448;51.588;7.248;2023-07-29T03:09:29;4.60;;;2.40;;
51358;SDS011;37448;51.588;7.248;2023-07-29T03:11:30;3.53;;;2.38;;
51358;SDS011;37448;51.588;7.248;2023-07-29T03:13:31;5.07;;;2.75;;
51358;SDS011;37448;51.588;7.248;2023-07-29T03:15:31;3.05;;;2.53;;
51358;SDS011;37448;51.588;7.248;2023-07-29T03:17:34;2.88;;;1.88;;
51358;SDS011;37448;51.588;7.248;2023-07-29T03:19:34;2.45;;;2.03;;
51358;SDS011;37448;51.588;7.248;2023-07-29T03:21:35;2.85;;;2.58;;
51358;SDS011;37448;51.588;7.248;2023-07-29T03:23:35;4.82;;;2.33;;
51358;SDS011;37448;51.588;7.248;2023-07-29T03:25:36;2.80;;;2.42;;
51358;SDS011;37448;51.588;7.248;2023-07-29T03:27:37;3.20;;;2.40;;
51358;SDS011;37448;51.588;7.248;2023-07-29T03:29:37;4.47;;;2.55;;
51358;SDS011;37448;51.588;7.248;2023-07-29T03:31:38;2.47;;;2.28;;
51358;SDS011;37448;51.588;7.248;2023-07-29T03:33:38;2.65;;;2.45;;
51358;SDS011;37448;51.588;7.248;2023-07-29T03:35:39;3.15;;;2.30;;
51358;SDS011;37448;51.588;7.248;2023-07-29T03:37:39;2.50;;;2.10;;
51358;SDS011;37448;51.588;7.248;2023-07-29T03:39:40;3.72;;;2.40;;
51358;SDS011;37448;51.588;7.248;2023-07-29T03:41:41;4.05;;;2.30;;
51358;SDS011;37448;51.588;7.248;2023-07-29T03:43:41;3.60;;;2.67;;
51358;SDS011;37448;51.588;7.248;2023-07-29T03:45:41;2.47;;;2.28;;
51358;SDS011;37448;51.588;7.248;2023-07-29T03:47:42;2.80;;;2.28;;
51358;SDS011;37448;51.588;7.248;2023-07-29T03:49:43;4.60;;;2.45;;
51358;SDS011;37448;51.588;7.248;2023-07-29T03:51:44;3.20;;;2.42;;
51358;SDS011;37448;51.588;7.248;2023-07-29T03:53:45;2.60;;;2.22;;
51358;SDS011;37448;51.588;7.248;2023-07-29T03:55:45;3.05;;;2.60;;
51358;SDS011;37448;51.588;7.248;2023-07-29T03:57:45;3.80;;;2.35;;
51358;SDS011;37448;51.588;7.248;2023-07-29T03:59:46;3.08;;;2.63;;
51358;SDS011;37448;51.588;7.248;2023-07-29T04:01:47;3.47;;;2.40;;
51358;SDS011;37448;51.588;7.248;2023-07-29T04:03:47;4.13;;;2.20;;
51358;SDS011;37448;51.588;7.248;2023-07-29T04:05:48;3.35;;;2.38;;
51358;SDS011;37448;51.588;7.248;2023-07-29T04:07:48;2.88;;;2.45;;
51358;SDS011;37448;51.588;7.248;2023-07-29T04:09:49;3.97;;;2.40;;
51358;SDS011;37448;51.588;7.248;2023-07-29T04:11:50;3.70;;;2.97;;
51358;SDS011;37448;51.588;7.248;2023-07-29T04:13:51;4.32;;;2.60;;
51358;SDS011;37448;51.588;7.248;2023-07-29T04:15:51;3.95;;;2.75;;
51358;SDS011;37448;51.588;7.248;2023-07-29T04:17:52;5.78;;;3.08;;
51358;SDS011;37448;51.588;7.248;2023-07-29T04:19:52;4.15;;;2.70;;
51358;SDS011;37448;51.588;7.248;2023-07-29T04:21:54;4.88;;;2.78;;
51358;SDS011;37448;51.588;7.248;2023-07-29T04:23:55;3.65;;;2.60;;
51358;SDS011;37448;51.588;7.248;2023-07-29T04:25:55;4.03;;;3.15;;
51358;SDS011;37448;51.588;7.248;2023-07-29T04:27:55;4.18;;;2.47;;
51358;SDS011;37448;51.588;7.248;2023-07-29T04:29:57;3.10;;;2.75;;
51358;SDS011;37448;51.588;7.248;2023-07-29T04:31:58;4.47;;;3.30;;
51358;SDS011;37448;51.588;7.248;2023-07-29T04:33:58;5.20;;;3.30;;
51358;SDS011;37448;51.588;7.248;2023-07-29T04:35:58;6.88;;;2.92;;
51358;SDS011;37448;51.588;7.248;2023-07-29T04:37:59;3.47;;;2.97;;
51358;SDS011;37448;51.588;7.248;2023-07-29T04:39:59;3.80;;;3.33;;
51358;SDS011;37448;51.588;7.248;2023-07-29T04:42:00;3.80;;;3.33;;
51358;SDS011;37448;51.588;7.248;2023-07-29T04:44:01;6.15;;;3.38;;
51358;SDS011;37448;51.588;7.248;2023-07-29T04:46:01;5.40;;;3.80;;
51358;SDS011;37448;51.588;7.248;2023-07-29T04:48:01;4.88;;;3.63;;
51358;SDS011;37448;51.588;7.248;2023-07-29T04:50:02;6.07;;;4.03;;
51358;SDS011;37448;51.588;7.248;2023-07-29T04:52:02;5.43;;;3.42;;
51358;SDS011;37448;51.588;7.248;2023-07-29T04:54:03;3.92;;;3.53;;
51358;SDS011;37448;51.588;7.248;2023-07-29T04:56:04;6.93;;;3.92;;
51358;SDS011;37448;51.588;7.248;2023-07-29T04:58:05;4.80;;;3.95;;
51358;SDS011;37448;51.588;7.248;2023-07-29T05:00:05;3.85;;;3.45;;
51358;SDS011;37448;51.588;7.248;2023-07-29T05:02:06;6.70;;;4.50;;
51358;SDS011;37448;51.588;7.248;2023-07-29T05:04:07;7.15;;;4.38;;
51358;SDS011;37448;51.588;7.248;2023-07-29T05:06:07;7.80;;;4.38;;
51358;SDS011;37448;51.588;7.248;2023-07-29T05:08:07;5.05;;;4.07;;
51358;SDS011;37448;51.588;7.248;2023-07-29T05:10:08;6.03;;;4.90;;
51358;SDS011;37448;51.588;7.248;2023-07-29T05:12:09;5.90;;;4.55;;
51358;SDS011;37448;51.588;7.248;2023-07-29T05:14:09;7.25;;;4.82;;
51358;SDS011;37448;51.588;7.248;2023-07-29T05:16:10;6.18;;;4.63;;
51358;SDS011;37448;51.588;7.248;2023-07-29T05:18:10;5.50;;;4.78;;
51358;SDS011;37448;51.588;7.248;2023-07-29T05:20:11;9.32;;;5.35;;
51358;SDS011;37448;51.588;7.248;2023-07-29T05:22:12;7.32;;;4.97;;
51358;SDS011;37448;51.588;7.248;2023-07-29T05:24:12;6.32;;;4.65;;
51358;SDS011;37448;51.588;7.248;2023-07-29T05:26:12;8.02;;;5.30;;
51358;SDS011;37448;51.588;7.248;2023-07-29T05:28:13;7.85;;;4.88;;
51358;SDS011;37448;51.588;7.248;2023-07-29T05:30:13;8.80;;;4.80;;
51358;SDS011;37448;51.588;7.248;2023-07-29T05:32:14;7.85;;;4.95;;
51358;SDS011;37448;51.588;7.248;2023-07-29T05:34:16;8.93;;;5.65;;
51358;SDS011;37448;51.588;7.248;2023-07-29T05:36:16;8.60;;;5.18;;
51358;SDS011;37448;51.588;7.248;2023-07-29T05:38:16;6.90;;;4.43;;
51358;SDS011;37448;51.588;7.248;2023-07-29T05:40:17;7.28;;;5.25;;
51358;SDS011;37448;51.588;7.248;2023-07-29T05:42:17;6.68;;;4.50;;
51358;SDS011;37448;51.588;7.248;2023-07-29T05:44:18;8.90;;;4.43;;
51358;SDS011;37448;51.588;7.248;2023-07-29T05:46:18;8.18;;;4.68;;
51358;SDS011;37448;51.588;7.248;2023-07-29T05:48:19;7.88;;;5.68;;
51358;SDS011;37448;51.588;7.248;2023-07-29T05:50:20;15.98;;;7.70;;
51358;SDS011;37448;51.588;7.248;2023-07-29T05:52:21;10.43;;;5.13;;
51358;SDS011;37448;51.588;7.248;2023-07-29T05:54:21;6.10;;;4.75;;
51358;SDS011;37448;51.588;7.248;2023-07-29T05:56:22;7.43;;;5.32;;
51358;SDS011;37448;51.588;7.248;2023-07-29T05:58:22;6.43;;;4.95;;
51358;SDS011;37448;51.588;7.248;2023-07-29T06:00:22;9.55;;;5.47;;
51358;SDS011;37448;51.588;7.248;2023-07-29T06:02:23;6.85;;;5.70;;
51358;SDS011;37448;51.588;7.248;2023-07-29T06:04:24;6.18;;;4.93;;
51358;SDS011;37448;51.588;7.248;2023-07-29T06:06:24;5.32;;;4.70;;
51358;SDS011;37448;51.588;7.248;2023-07-29T06:08:25;8.52;;;4.90;;
51358;SDS011;37448;51.588;7.248;2023-07-29T06:10:28;4.93;;;2.30;;
51358;SDS011;37448;51.588;7.248;2023-07-29T06:12:28;4.75;;;2.88;;
51358;SDS011;37448;51.588;7.248;2023-07-29T06:14:29;4.25;;;1.90;;
51358;SDS011;37448;51.588;7.248;2023-07-29T06:16:29;3.33;;;2.33;;
51358;SDS011;37448;51.588;7.248;2023-07-29T06:18:30;2.90;;;1.75;;
51358;SDS011;37448;51.588;7.248;2023-07-29T06:20:30;3.65;;;1.50;;
51358;SDS011;37448;51.588;7.248;2023-07-29T06:22:31;2.83;;;1.30;;
51358;SDS011;37448;51.588;7.248;2023-07-29T06:24:31;2.92;;;1.73;;
51358;SDS011;37448;51.588;7.248;2023-07-29T06:26:32;2.20;;;1.20;;
51358;SDS011;37448;51.588;7.248;2023-07-29T06:28:33;1.60;;;1.15;;
51358;SDS011;37448;51.588;7.248;2023-07-29T06:30:33;2.00;;;1.20;;
51358;SDS011;37448;51.588;7.248;2023-07-29T06:32:34;1.70;;;1.42;;
51358;SDS011;37448;51.588;7.248;2023-07-29T06:34:34;1.83;;;1.20;;
51358;SDS011;37448;51.588;7.248;2023-07-29T06:36:35;1.35;;;1.20;;
51358;SDS011;37448;51.588;7.248;2023-07-29T06:38:35;2.60;;;1.48;;
51358;SDS011;37448;51.588;7.248;2023-07-29T06:40:35;2.25;;;0.80;;
51358;SDS011;37448;51.588;7.248;2023-07-29T06:42:36;2.97;;;1.30;;
51358;SDS011;37448;51.588;7.248;2023-07-29T06:44:37;2.03;;;1.15;;
51358;SDS011;37448;51.588;7.248;2023-07-29T06:46:37;1.75;;;1.10;;
51358;SDS011;37448;51.588;7.248;2023-07-29T06:48:38;2.53;;;1.27;;
51358;SDS011;37448;51.588;7.248;2023-07-29T06:50:38;2.95;;;1.60;;
51358;SDS011;37448;51.588;7.248;2023-07-29T06:52:38;1.35;;;0.85;;
51358;SDS011;37448;51.588;7.248;2023-07-29T06:54:40;2.17;;;1.13;;
51358;SDS011;37448;51.588;7.248;2023-07-29T06:56:40;0.90;;;0.70;;
51358;SDS011;37448;51.588;7.248;2023-07-29T06:58:41;3.08;;;1.70;;
51358;SDS011;37448;51.588;7.248;2023-07-29T07:00:41;3.00;;;1.48;;
51358;SDS011;37448;51.588;7.248;2023-07-29T07:02:42;1.67;;;1.20;;
51358;SDS011;37448;51.588;7.248;2023-07-29T07:04:42;2.63;;;1.30;;
51358;SDS011;37448;51.588;7.248;2023-07-29T07:06:42;3.17;;;1.42;;
51358;SDS011;37448;51.588;7.248;2023-07-29T07:08:43;3.63;;;1.50;;
51358;SDS011;37448;51.588;7.248;2023-07-29T07:10:44;2.08;;;1.30;;
51358;SDS011;37448;51.588;7.248;2023-07-29T07:12:44;2.63;;;1.67;;
51358;SDS011;37448;51.588;7.248;2023-07-29T07:14:44;3.78;;;2.05;;
51358;SDS011;37448;51.588;7.248;2023-07-29T07:16:45;2.00;;;1.30;;
51358;SDS011;37448;51.588;7.248;2023-07-29T07:18:45;5.13;;;1.90;;
51358;SDS011;37448;51.588;7.248;2023-07-29T07:20:47;3.00;;;1.63;;
51358;SDS011;37448;51.588;7.248;2023-07-29T07:22:48;2.85;;;1.77;;
51358;SDS011;37448;51.588;7.248;2023-07-29T07:24:48;3.00;;;1.73;;
51358;SDS011;37448;51.588;7.248;2023-07-29T07:26:49;4.18;;;1.75;;
51358;SDS011;37448;51.588;7.248;2023-07-29T07:28:49;5.07;;;2.22;;
51358;SDS011;37448;51.588;7.248;2023-07-29T07:30:51;4.32;;;2.10;;
51358;SDS011;37448;51.588;7.248;2023-07-29T07:32:52;2.30;;;1.75;;
51358;SDS011;37448;51.588;7.248;2023-07-29T07:34:52;2.15;;;1.73;;
51358;SDS011;37448;51.588;7.248;2023-07-29T07:36:53;3.90;;;1.83;;
51358;SDS011;37448;51.588;7.248;2023-07-29T07:38:53;4.07;;;1.70;;
51358;SDS011;37448;51.588;7.248;2023-07-29T07:40:54;5.35;;;1.70;;
51358;SDS011;37448;51.588;7.248;2023-07-29T07:42:55;2.60;;;1.40;;
51358;SDS011;37448;51.588;7.248;2023-07-29T07:44:56;3.05;;;1.55;;
51358;SDS011;37448;51.588;7.248;2023-07-29T07:46:56;4.18;;;1.83;;
51358;SDS011;37448;51.588;7.248;2023-07-29T07:48:57;2.83;;;1.40;;
51358;SDS011;37448;51.588;7.248;2023-07-29T07:50:57;3.05;;;1.73;;
51358;SDS011;37448;51.588;7.248;2023-07-29T07:52:57;3.88;;;1.50;;
51358;SDS011;37448;51.588;7.248;2023-07-29T07:54:58;4.03;;;1.88;;
51358;SDS011;37448;51.588;7.248;2023-07-29T07:56:58;2.20;;;1.63;;
51358;SDS011;37448;51.588;7.248;2023-07-29T07:58:58;3.42;;;1.40;;
51358;SDS011;37448;51.588;7.248;2023-07-29T08:01:02;2.05;;;1.40;;
51358;SDS011;37448;51.588;7.248;2023-07-29T08:03:06;2.88;;;1.50;;
51358;SDS011;37448;51.588;7.248;2023-07-29T08:05:07;2.75;;;1.30;;
51358;SDS011;37448;51.588;7.248;2023-07-29T08:07:07;1.48;;;1.30;;
51358;SDS011;37448;51.588;7.248;2023-07-29T08:09:08;1.80;;;1.27;;
51358;SDS011;37448;51.588;7.248;2023-07-29T08:11:08;2.35;;;1.20;;
51358;SDS011;37448;51.588;7.248;2023-07-29T08:13:09;1.30;;;0.98;;
51358;SDS011;37448;51.588;7.248;2023-07-29T08:15:09;3.88;;;1.55;;
51358;SDS011;37448;51.588;7.248;2023-07-29T08:17:10;1.38;;;1.25;;
51358;SDS011;37448;51.588;7.248;2023-07-29T08:19:10;1.73;;;1.10;;
51358;SDS011;37448;51.588;7.248;2023-07-29T08:21:10;1.75;;;1.30;;
51358;SDS011;37448;51.588;7.248;2023-07-29T08:23:11;6.95;;;1.60;;
51358;SDS011;37448;51.588;7.248;2023-07-29T08:25:11;2.92;;;1.20;;
51358;SDS011;37448;51.588;7.248;2023-07-29T08:27:12;1.98;;;1.10;;
51358;SDS011;37448;51.588;7.248;2023-07-29T08:29:12;2.55;;;1.05;;
51358;SDS011;37448;51.588;7.248;2023-07-29T08:31:12;2.35;;;1.05;;
51358;SDS011;37448;51.588;7.248;2023-07-29T08:33:13;1.13;;;1.02;;
51358;SDS011;37448;51.588;7.248;2023-07-29T08:35:13;2.15;;;0.90;;
51358;SDS011;37448;51.588;7.248;2023-07-29T08:37:14;1.23;;;0.90;;
51358;SDS011;37448;51.588;7.248;2023-07-29T08:39:14;1.38;;;0.75;;
51358;SDS011;37448;51.588;7.248;2023-07-29T08:43:22;0.88;;;0.70;;
51358;SDS011;37448;51.588;7.248;2023-07-29T08:45:28;1.15;;;0.70;;
51358;SDS011;37448;51.588;7.248;2023-07-29T08:47:30;3.20;;;0.63;;
51358;SDS011;37448;51.588;7.248;2023-07-29T08:49:31;0.80;;;0.70;;
51358;SDS011;37448;51.588;7.248;2023-07-29T08:51:32;1.02;;;0.60;;
51358;SDS011;37448;51.588;7.248;2023-07-29T08:53:34;1.10;;;0.80;;
51358;SDS011;37448;51.588;7.248;2023-07-29T08:55:35;0.95;;;0.60;;
51358;SDS011;37448;51.588;7.248;2023-07-29T08:57:36;1.13;;;0.73;;
51358;SDS011;37448;51.588;7.248;2023-07-29T08:59:38;1.85;;;0.90;;
51358;SDS011;37448;51.588;7.248;2023-07-29T09:01:39;1.27;;;0.60;;
51358;SDS011;37448;51.588;7.248;2023-07-29T09:03:40;1.00;;;0.80;;
51358;SDS011;37448;51.588;7.248;2023-07-29T09:05:41;0.85;;;0.65;;
51358;SDS011;37448;51.588;7.248;2023-07-29T09:07:41;2.03;;;0.80;;
51358;SDS011;37448;51.588;7.248;2023-07-29T09:09:42;1.65;;;0.68;;
51358;SDS011;37448;51.588;7.248;2023-07-29T09:11:43;1.80;;;0.90;;
51358;SDS011;37448;51.588;7.248;2023-07-29T09:13:44;0.55;;;0.50;;
51358;SDS011;37448;51.588;7.248;2023-07-29T09:15:44;0.90;;;0.65;;
51358;SDS011;37448;51.588;7.248;2023-07-29T09:17:45;5.93;;;0.95;;
51358;SDS011;37448;51.588;7.248;2023-07-29T09:19:49;1.05;;;0.60;;
51358;SDS011;37448;51.588;7.248;2023-07-29T09:21:50;1.30;;;0.85;;
51358;SDS011;37448;51.588;7.248;2023-07-29T09:23:51;2.03;;;0.70;;
51358;SDS011;37448;51.588;7.248;2023-07-29T09:25:51;1.38;;;0.70;;
51358;SDS011;37448;51.588;7.248;2023-07-29T09:28:10;0.88;;;0.70;;
51358;SDS011;37448;51.588;7.248;2023-07-29T09:30:15;0.65;;;0.65;;
51358;SDS011;37448;51.588;7.248;2023-07-29T09:32:17;1.27;;;0.60;;
51358;SDS011;37448;51.588;7.248;2023-07-29T09:34:19;0.77;;;0.70;;
51358;SDS011;37448;51.588;7.248;2023-07-29T09:36:21;0.75;;;0.70;;
51358;SDS011;37448;51.588;7.248;2023-07-29T09:38:26;1.27;;;0.60;;
51358;SDS011;37448;51.588;7.248;2023-07-29T09:40:27;0.75;;;0.70;;
51358;SDS011;37448;51.588;7.248;2023-07-29T09:42:27;0.63;;;0.63;;
51358;SDS011;37448;51.588;7.248;2023-07-29T09:44:27;0.80;;;0.50;;
51358;SDS011;37448;51.588;7.248;2023-07-29T09:46:37;1.33;;;0.70;;
51358;SDS011;37448;51.588;7.248;2023-07-29T09:48:38;0.80;;;0.60;;
51358;SDS011;37448;51.588;7.248;2023-07-29T09:50:39;0.80;;;0.80;;
51358;SDS011;37448;51.588;7.248;2023-07-29T09:52:39;1.00;;;0.90;;
51358;SDS011;37448;51.588;7.248;2023-07-29T09:54:39;4.32;;;1.20;;
51358;SDS011;37448;51.588;7.248;2023-07-29T09:56:41;1.50;;;1.00;;
51358;SDS011;37448;51.588;7.248;2023-07-29T09:58:45;1.05;;;0.95;;
51358;SDS011;37448;51.588;7.248;2023-07-29T10:00:46;1.70;;;0.80;;
51358;SDS011;37448;51.588;7.248;2023-07-29T10:02:47;1.00;;;0.80;;
51358;SDS011;37448;51.588;7.248;2023-07-29T10:04:48;1.20;;;0.90;;
51358;SDS011;37448;51.588;7.248;2023-07-29T10:06:49;1.25;;;0.80;;
51358;SDS011;37448;51.588;7.248;2023-07-29T10:08:50;2.58;;;0.70;;
51358;SDS011;37448;51.588;7.248;2023-07-29T10:10:52;1.08;;;0.80;;
51358;SDS011;37448;51.588;7.248;2023-07-29T10:12:53;1.90;;;1.00;;
51358;SDS011;37448;51.588;7.248;2023-07-29T10:14:54;1.23;;;0.90;;
51358;SDS011;37448;51.588;7.248;2023-07-29T10:16:57;1.80;;;1.10;;
51358;SDS011;37448;51.588;7.248;2023-07-29T10:18:58;2.08;;;0.85;;
51358;SDS011;37448;51.588;7.248;2023-07-29T10:21:00;0.93;;;0.80;;
51358;SDS011;37448;51.588;7.248;2023-07-29T10:23:01;1.10;;;0.80;;
51358;SDS011;37448;51.588;7.248;2023-07-29T10:25:07;1.95;;;0.70;;
51358;SDS011;37448;51.588;7.248;2023-07-29T10:27:10;0.70;;;0.60;;
51358;SDS011;37448;51.588;7.248;2023-07-29T10:29:18;1.15;;;0.98;;
51358;SDS011;37448;51.588;7.248;2023-07-29T10:31:21;1.63;;;1.23;;
51358;SDS011;37448;51.588;7.248;2023-07-29T10:33:23;0.88;;;0.70;;
51358;SDS011;37448;51.588;7.248;2023-07-29T10:35:23;0.98;;;0.82;;
51358;SDS011;37448;51.588;7.248;2023-07-29T10:37:25;1.27;;;0.93;;
51358;SDS011;37448;51.588;7.248;2023-07-29T10:39:26;1.70;;;1.60;;
51358;SDS011;37448;51.588;7.248;2023-07-29T10:43:56;2.72;;;1.85;;
51358;SDS011;37448;51.588;7.248;2023-07-29T10:45:57;2.85;;;1.70;;
51358;SDS011;37448;51.588;7.248;2023-07-29T10:47:58;1.65;;;1.50;;
51358;SDS011;37448;51.588;7.248;2023-07-29T10:49:58;1.58;;;1.10;;
51358;SDS011;37448;51.588;7.248;2023-07-29T10:51:59;2.38;;;1.10;;
51358;SDS011;37448;51.588;7.248;2023-07-29T10:54:04;1.73;;;1.52;;
51358;SDS011;37448;51.588;7.248;2023-07-29T10:56:10;2.55;;;1.10;;
51358;SDS011;37448;51.588;7.248;2023-07-29T10:58:15;1.60;;;1.08;;
51358;SDS011;37448;51.588;7.248;2023-07-29T11:00:19;1.23;;;1.10;;
51358;SDS011;37448;51.588;7.248;2023-07-29T11:02:46;4.72;;;2.40;;
51358;SDS011;37448;51.588;7.248;2023-07-29T11:04:50;1.52;;;1.20;;
51358;SDS011;37448;51.588;7.248;2023-07-29T11:09:21;1.98;;;1.55;;
51358;SDS011;37448;51.588;7.248;2023-07-29T11:11:43;1.20;;;0.90;;
51358;SDS011;37448;51.588;7.248;2023-07-29T11:13:43;1.48;;;1.30;;
51358;SDS011;37448;51.588;7.248;2023-07-29T11:15:43;1.58;;;1.15;;
51358;SDS011;37448;51.588;7.248;2023-07-29T11:17:50;1.38;;;1.25;;
51358;SDS011;37448;51.588;7.248;2023-07-29T11:19:51;1.30;;;1.20;;
51358;SDS011;37448;51.588;7.248;2023-07-29T11:21:52;1.25;;;1.10;;
51358;SDS011;37448;51.588;7.248;2023-07-29T11:23:53;1.30;;;1.20;;
51358;SDS011;37448;51.588;7.248;2023-07-29T11:25:54;1.13;;;0.70;;
51358;SDS011;37448;51.588;7.248;2023-07-29T11:27:55;1.27;;;0.80;;
51358;SDS011;37448;51.588;7.248;2023-07-29T11:29:57;1.20;;;0.90;;
51358;SDS011;37448;51.588;7.248;2023-07-29T11:31:59;1.55;;;1.10;;
51358;SDS011;37448;51.588;7.248;2023-07-29T11:33:59;0.82;;;0.80;;
51358;SDS011;37448;51.588;7.248;2023-07-29T11:36:00;1.75;;;1.05;;
51358;SDS011;37448;51.588;7.248;2023-07-29T11:38:01;1.77;;;1.15;;
51358;SDS011;37448;51.588;7.248;2023-07-29T11:40:01;1.55;;;1.08;;
51358;SDS011;37448;51.588;7.248;2023-07-29T11:42:02;1.23;;;0.88;;
51358;SDS011;37448;51.588;7.248;2023-07-29T11:44:03;1.42;;;0.95;;
51358;SDS011;37448;51.588;7.248;2023-07-29T11:46:03;1.63;;;0.90;;
51358;SDS011;37448;51.588;7.248;2023-07-29T11:48:04;2.28;;;1.08;;
51358;SDS011;37448;51.588;7.248;2023-07-29T11:50:07;2.00;;;1.17;;
51358;SDS011;37448;51.588;7.248;2023-07-29T11:52:14;1.58;;;1.08;;
51358;SDS011;37448;51.588;7.248;2023-07-29T11:54:14;1.17;;;1.00;;
51358;SDS011;37448;51.588;7.248;2023-07-29T11:56:15;1.25;;;1.08;;
51358;SDS011;37448;51.588;7.248;2023-07-29T11:58:17;2.05;;;1.23;;
51358;SDS011;37448;51.588;7.248;2023-07-29T12:00:17;2.35;;;1.42;;
51358;SDS011;37448;51.588;7.248;2023-07-29T12:02:19;2.00;;;1.50;;
51358;SDS011;37448;51.588;7.248;2023-07-29T12:04:20;1.52;;;1.17;;
51358;SDS011;37448;51.588;7.248;2023-07-29T12:06:21;1.77;;;1.42;;
51358;SDS011;37448;51.588;7.248;2023-07-29T12:08:24;1.75;;;1.10;;
51358;SDS011;37448;51.588;7.248;2023-07-29T12:10:25;2.35;;;1.33;;
51358;SDS011;37448;51.588;7.248;2023-07-29T12:12:25;4.07;;;1.30;;
51358;SDS011;37448;51.588;7.248;2023-07-29T12:14:26;1.35;;;1.13;;
51358;SDS011;37448;51.588;7.248;2023-07-29T12:16:28;2.05;;;1.52;;
51358;SDS011;37448;51.588;7.248;2023-07-29T12:18:35;1.60;;;1.38;;
51358;SDS011;37448;51.588;7.248;2023-07-29T12:20:36;2.67;;;1.50;;
51358;SDS011;37448;51.588;7.248;2023-07-29T12:22:36;1.67;;;1.27;;
51358;SDS011;37448;51.588;7.248;2023-07-29T12:24:38;1.48;;;1.20;;
51358;SDS011;37448;51.588;7.248;2023-07-29T12:26:42;1.15;;;1.00;;